createdAt,value
2023-02-06T00:00:44.858Z,12.50
2023-02-06T00:01:45.235Z,12.20
2023-02-06T00:02:45.549Z,12.60
2023-02-06T00:03:45.828Z,12.10
2023-02-06T00:04:46.071Z,13.60
2023-02-06T00:05:46.451Z,13.60
2023-02-06T00:06:46.654Z,12.60
2023-02-06T00:07:47.006Z,11.90
2023-02-06T00:08:47.330Z,13.30
2023-02-06T00:09:47.588Z,13.00
2023-02-06T00:10:47.747Z,13.00
2023-02-06T00:11:48.156Z,12.40
2023-02-06T00:12:48.434Z,13.10
2023-02-06T00:13:48.767Z,12.90
2023-02-06T00:14:49.089Z,13.30
2023-02-06T00:15:49.451Z,15.80
2023-02-06T00:16:49.696Z,15.30
2023-02-06T00:17:49.904Z,15.20
2023-02-06T00:18:50.216Z,13.70
2023-02-06T00:19:50.585Z,13.70
2023-02-06T00:20:50.944Z,14.00
2023-02-06T00:21:51.210Z,14.00
2023-02-06T00:22:51.383Z,13.70
2023-02-06T00:23:51.699Z,14.90
2023-02-06T00:24:52.049Z,15.00
2023-02-06T00:25:52.461Z,15.20
2023-02-06T00:26:52.648Z,14.80
2023-02-06T00:27:53.969Z,14.40
2023-02-06T00:28:53.245Z,16.10
2023-02-06T00:29:53.618Z,15.50
2023-02-06T00:31:01.831Z,15.50
2023-02-06T00:31:54.306Z,14.90
2023-02-06T00:32:54.413Z,14.30
2023-02-06T00:33:54.779Z,13.70
2023-02-06T00:34:55.118Z,14.00
2023-02-06T00:35:55.353Z,13.50
2023-02-06T00:36:55.656Z,12.50
2023-02-06T00:37:55.986Z,12.80
2023-02-06T00:38:56.296Z,12.90
2023-02-06T00:39:56.631Z,12.80
2023-02-06T00:40:56.796Z,11.50
2023-02-06T00:41:57.265Z,12.90
2023-02-06T00:42:57.439Z,12.70
2023-02-06T00:43:57.753Z,12.30
2023-02-06T00:44:58.052Z,13.60
2023-02-06T00:45:58.367Z,11.90
2023-02-06T00:46:58.701Z,11.60
2023-02-06T00:47:59.107Z,11.90
2023-02-06T00:48:59.212Z,12.80
2023-02-06T00:49:59.570Z,12.20
2023-02-06T00:50:59.843Z,11.70
2023-02-06T00:52:00.180Z,12.20
2023-02-06T00:53:00.546Z,12.10
2023-02-06T00:54:00.827Z,13.10
2023-02-06T00:55:01.162Z,12.60
2023-02-06T00:56:01.515Z,11.80
2023-02-06T00:57:01.903Z,11.40
2023-02-06T00:58:02.045Z,13.60
2023-02-06T00:59:02.268Z,12.50
2023-02-06T01:00:02.623Z,12.10
2023-02-06T01:01:02.906Z,11.90
2023-02-06T01:02:03.335Z,11.70
2023-02-06T01:03:03.542Z,12.60
2023-02-06T01:04:03.894Z,12.20
2023-02-06T01:05:04.112Z,11.90
2023-02-06T01:06:04.416Z,14.50
2023-02-06T01:07:04.691Z,14.30
2023-02-06T01:08:05.186Z,13.60
2023-02-06T01:09:05.365Z,12.80
2023-02-06T01:10:05.585Z,12.40
2023-02-06T01:11:05.864Z,12.40
2023-02-06T01:12:06.213Z,13.00
2023-02-06T01:13:06.407Z,12.90
2023-02-06T01:14:06.719Z,12.70
2023-02-06T01:15:06.983Z,11.90
2023-02-06T01:16:07.366Z,12.30
2023-02-06T01:17:07.652Z,12.50
2023-02-06T01:18:07.982Z,11.50
2023-02-06T01:19:08.271Z,12.50
2023-02-06T01:20:08.641Z,12.60
2023-02-06T01:21:08.944Z,11.50
2023-02-06T01:22:09.362Z,11.70
2023-02-06T01:23:09.538Z,11.10
2023-02-06T01:24:09.878Z,11.50
2023-02-06T01:25:10.159Z,11.40
2023-02-06T01:26:10.439Z,10.80
2023-02-06T01:27:10.716Z,11.80
2023-02-06T01:28:11.108Z,12.70
2023-02-06T01:29:11.282Z,11.70
2023-02-06T01:30:11.613Z,11.80
2023-02-06T01:31:11.999Z,11.60
2023-02-06T01:32:12.167Z,11.50
2023-02-06T01:33:12.462Z,12.30
2023-02-06T01:34:12.760Z,12.90
2023-02-06T01:35:13.049Z,12.70
2023-02-06T01:36:13.370Z,11.70
2023-02-06T01:37:13.686Z,12.10
2023-02-06T01:38:14.052Z,11.50
2023-02-06T01:39:14.370Z,11.70
2023-02-06T01:40:14.662Z,12.40
2023-02-06T01:41:14.950Z,12.90
2023-02-06T01:42:15.288Z,11.90
2023-02-06T01:43:15.596Z,11.80
2023-02-06T01:44:15.902Z,12.00
2023-02-06T01:45:16.198Z,12.60
2023-02-06T01:46:16.521Z,12.40
2023-02-06T01:47:16.789Z,11.80
2023-02-06T01:48:17.154Z,12.30
2023-02-06T01:49:17.437Z,13.80
2023-02-06T01:50:17.781Z,11.90
2023-02-06T01:51:18.094Z,11.70
2023-02-06T01:52:18.406Z,13.20
2023-02-06T01:53:18.706Z,11.50
2023-02-06T01:54:19.008Z,12.20
2023-02-06T01:55:19.305Z,11.50
2023-02-06T01:56:19.658Z,11.30
2023-02-06T01:57:19.925Z,10.90
2023-02-06T01:58:20.257Z,11.50
2023-02-06T01:59:20.567Z,10.50
2023-02-06T02:00:20.873Z,11.00
2023-02-06T02:01:21.144Z,11.10
2023-02-06T02:02:21.548Z,11.80
2023-02-06T02:03:21.846Z,12.10
2023-02-06T02:04:22.162Z,11.00
2023-02-06T02:05:22.394Z,11.30
2023-02-06T02:06:22.757Z,12.00
2023-02-06T02:07:23.060Z,11.90
2023-02-06T02:08:23.346Z,11.60
2023-02-06T02:09:23.631Z,11.10
2023-02-06T02:10:23.958Z,11.20
2023-02-06T02:11:24.313Z,11.90
2023-02-06T02:12:24.442Z,11.70
2023-02-06T02:13:24.785Z,11.40
2023-02-06T02:14:25.103Z,11.90
2023-02-06T02:15:25.367Z,12.10
2023-02-06T02:16:25.789Z,11.80
2023-02-06T02:17:25.931Z,11.80
2023-02-06T02:18:26.303Z,12.80
2023-02-06T02:19:26.601Z,12.30
2023-02-06T02:20:26.891Z,11.50
2023-02-06T02:21:27.203Z,12.00
2023-02-06T02:22:27.513Z,12.20
2023-02-06T02:23:27.819Z,12.00
2023-02-06T02:24:30.252Z,11.60
2023-02-06T02:25:28.396Z,11.80
2023-02-06T02:26:28.743Z,12.50
2023-02-06T02:27:29.086Z,12.50
2023-02-06T02:28:29.355Z,12.60
2023-02-06T02:29:29.717Z,12.20
2023-02-06T02:30:30.136Z,12.60
2023-02-06T02:31:30.463Z,11.40
2023-02-06T02:32:30.643Z,13.10
2023-02-06T02:33:30.928Z,12.90
2023-02-06T02:34:31.253Z,12.50
2023-02-06T02:35:31.585Z,12.60
2023-02-06T02:36:31.886Z,12.90
2023-02-06T02:37:32.141Z,12.70
2023-02-06T02:38:32.500Z,12.30
2023-02-06T02:39:32.789Z,12.90
2023-02-06T02:40:33.082Z,11.70
2023-02-06T02:41:33.422Z,12.20
2023-02-06T02:42:33.714Z,12.60
2023-02-06T02:43:33.998Z,13.20
2023-02-06T02:44:34.345Z,12.40
2023-02-06T02:45:35.179Z,13.00
2023-02-06T02:46:34.953Z,13.40
2023-02-06T02:47:35.207Z,12.30
2023-02-06T02:48:35.567Z,13.00
2023-02-06T02:49:35.871Z,13.60
2023-02-06T02:50:36.152Z,13.40
2023-02-06T02:51:36.492Z,12.20
2023-02-06T02:52:36.808Z,11.60
2023-02-06T02:53:37.116Z,12.70
2023-02-06T02:54:37.438Z,13.10
2023-02-06T02:55:37.975Z,13.90
2023-02-06T02:56:38.113Z,12.60
2023-02-06T02:57:38.346Z,12.60
2023-02-06T02:58:38.710Z,13.10
2023-02-06T02:59:38.977Z,12.40
2023-02-06T03:00:39.358Z,14.60
2023-02-06T03:01:39.620Z,13.40
2023-02-06T03:02:39.993Z,12.40
2023-02-06T03:03:40.308Z,13.30
2023-02-06T03:04:40.618Z,12.80
2023-02-06T03:05:40.930Z,12.60
2023-02-06T03:06:41.221Z,12.90
2023-02-06T03:07:41.479Z,13.40
2023-02-06T03:08:41.820Z,13.10
2023-02-06T03:09:44.246Z,12.30
2023-02-06T03:10:42.416Z,13.90
2023-02-06T03:11:42.709Z,13.40
2023-02-06T03:12:43.050Z,12.70
2023-02-06T03:13:43.345Z,13.00
2023-02-06T03:14:43.709Z,14.80
2023-02-06T03:15:43.993Z,14.30
2023-02-06T03:16:44.409Z,14.00
2023-02-06T03:17:44.621Z,14.10
2023-02-06T03:18:44.946Z,14.10
2023-02-06T03:19:45.209Z,13.90
2023-02-06T03:20:45.560Z,14.00
2023-02-06T03:21:45.829Z,14.50
2023-02-06T03:22:46.158Z,12.70
2023-02-06T03:23:46.436Z,13.40
2023-02-06T03:24:46.745Z,14.40
2023-02-06T03:25:47.034Z,13.90
2023-02-06T03:26:47.366Z,13.70
2023-02-06T03:27:47.642Z,14.00
2023-02-06T03:28:47.954Z,13.40
2023-02-06T03:29:48.237Z,13.80
2023-02-06T03:30:48.596Z,14.10
2023-02-06T03:31:48.828Z,15.70
2023-02-06T03:32:49.134Z,13.30
2023-02-06T03:33:49.423Z,12.90
2023-02-06T03:34:49.732Z,12.00
2023-02-06T03:35:50.014Z,12.30
2023-02-06T03:36:50.310Z,12.00
2023-02-06T03:37:50.590Z,12.40
2023-02-06T03:38:50.957Z,12.30
2023-02-06T03:39:51.214Z,11.90
2023-02-06T03:40:51.584Z,34.00
2023-02-06T03:41:51.887Z,25.30
2023-02-06T03:42:52.221Z,16.40
2023-02-06T03:43:52.485Z,13.20
2023-02-06T03:44:52.827Z,12.40
2023-02-06T03:45:53.161Z,11.40
2023-02-06T03:46:53.400Z,12.20
2023-02-06T03:47:53.677Z,11.90
2023-02-06T03:48:54.035Z,13.10
2023-02-06T03:49:54.343Z,12.70
2023-02-06T03:50:54.569Z,12.20
2023-02-06T03:51:54.899Z,14.40
2023-02-06T03:52:55.255Z,13.20
2023-02-06T03:53:55.542Z,12.60
2023-02-06T03:54:55.881Z,11.80
2023-02-06T03:55:56.154Z,11.90
2023-02-06T03:56:56.483Z,12.30
2023-02-06T03:57:56.797Z,12.60
2023-02-06T03:58:57.187Z,12.10
2023-02-06T03:59:57.470Z,11.60
2023-02-06T04:00:57.826Z,12.40
2023-02-06T04:01:58.243Z,13.40
2023-02-06T04:02:58.443Z,12.20
2023-02-06T04:03:58.757Z,15.80
2023-02-06T04:04:59.075Z,12.20
2023-02-06T04:05:59.335Z,13.00
2023-02-06T04:06:59.673Z,12.00
2023-02-06T04:07:59.943Z,11.40
2023-02-06T04:09:00.331Z,12.80
2023-02-06T04:10:00.607Z,13.20
2023-02-06T04:11:00.950Z,11.50
2023-02-06T04:12:01.229Z,12.50
2023-02-06T04:13:01.564Z,13.50
2023-02-06T04:14:01.867Z,12.00
2023-02-06T04:15:02.182Z,11.30
2023-02-06T04:16:02.471Z,11.50
2023-02-06T04:17:02.825Z,11.20
2023-02-06T04:18:03.936Z,11.30
2023-02-06T04:19:03.375Z,11.10
2023-02-06T04:20:03.648Z,13.20
2023-02-06T04:21:04.001Z,11.90
2023-02-06T04:22:04.278Z,10.80
2023-02-06T04:23:04.582Z,11.70
2023-02-06T04:24:04.810Z,12.10
2023-02-06T04:25:05.160Z,14.70
2023-02-06T04:26:05.431Z,13.00
2023-02-06T04:27:05.712Z,12.00
2023-02-06T04:28:06.024Z,12.70
2023-02-06T04:29:06.306Z,11.10
2023-02-06T04:30:06.600Z,12.00
2023-02-06T04:31:07.036Z,11.30
2023-02-06T04:32:07.091Z,12.30
2023-02-06T04:33:07.429Z,11.30
2023-02-06T04:34:07.679Z,13.30
2023-02-06T04:35:08.017Z,13.00
2023-02-06T04:36:08.301Z,11.50
2023-02-06T04:37:08.613Z,11.80
2023-02-06T04:38:08.868Z,11.00
2023-02-06T04:39:09.209Z,10.80
2023-02-06T04:40:09.420Z,12.00
2023-02-06T04:41:09.810Z,12.40
2023-02-06T04:42:10.098Z,12.40
2023-02-06T04:43:10.388Z,11.70
2023-02-06T04:44:10.666Z,11.20
2023-02-06T04:45:11.000Z,11.70
2023-02-06T04:46:11.323Z,12.40
2023-02-06T04:47:11.582Z,12.00
2023-02-06T04:48:11.918Z,12.10
2023-02-06T04:49:12.238Z,12.20
2023-02-06T04:50:12.517Z,12.40
2023-02-06T04:51:12.848Z,12.50
2023-02-06T04:52:13.126Z,12.20
2023-02-06T04:53:13.459Z,13.70
2023-02-06T04:54:13.816Z,15.10
2023-02-06T04:55:14.107Z,14.90
2023-02-06T04:56:14.394Z,13.40
2023-02-06T04:57:14.723Z,14.60
2023-02-06T04:58:15.002Z,12.60
2023-02-06T04:59:15.391Z,11.80
2023-02-06T05:00:15.762Z,12.60
2023-02-06T05:01:15.947Z,12.50
2023-02-06T05:02:16.210Z,13.70
2023-02-06T05:03:16.429Z,13.50
2023-02-06T05:04:16.695Z,11.80
2023-02-06T05:05:17.032Z,17.60
2023-02-06T05:06:17.308Z,14.50
2023-02-06T05:07:17.584Z,12.50
2023-02-06T05:08:17.874Z,13.30
2023-02-06T05:09:18.207Z,16.00
2023-02-06T05:10:18.486Z,12.30
2023-02-06T05:11:18.870Z,12.10
2023-02-06T05:12:19.134Z,15.20
2023-02-06T05:13:19.462Z,13.20
2023-02-06T05:14:19.723Z,12.00
2023-02-06T05:15:20.076Z,12.90
2023-02-06T05:16:20.381Z,12.00
2023-02-06T05:17:20.602Z,12.80
2023-02-06T05:18:20.917Z,12.40
2023-02-06T05:19:21.213Z,13.20
2023-02-06T05:20:21.527Z,13.50
2023-02-06T05:21:21.829Z,12.70
2023-02-06T05:22:22.110Z,13.20
2023-02-06T05:23:22.437Z,13.20
2023-02-06T05:24:22.753Z,13.90
2023-02-06T05:25:23.023Z,13.50
2023-02-06T05:26:23.332Z,12.60
2023-02-06T05:27:23.682Z,10.70
2023-02-06T05:28:23.894Z,13.10
2023-02-06T05:29:24.183Z,12.70
2023-02-06T05:30:24.455Z,14.30
2023-02-06T05:31:25.019Z,12.90
2023-02-06T05:32:25.113Z,11.40
2023-02-06T05:33:25.388Z,13.40
2023-02-06T05:34:25.592Z,15.20
2023-02-06T05:35:25.855Z,14.90
2023-02-06T05:36:26.175Z,12.40
2023-02-06T05:37:26.433Z,11.90
2023-02-06T05:38:26.774Z,10.70
2023-02-06T05:39:26.954Z,12.30
2023-02-06T05:40:27.221Z,13.80
2023-02-06T05:41:27.578Z,38.80
2023-02-06T05:42:27.802Z,41.50
2023-02-06T05:43:28.224Z,43.50
2023-02-06T05:44:28.515Z,37.20
2023-02-06T05:45:28.757Z,31.50
2023-02-06T05:46:29.054Z,27.70
2023-02-06T05:47:29.379Z,21.50
2023-02-06T05:48:29.698Z,23.20
2023-02-06T05:49:29.961Z,18.40
2023-02-06T05:50:30.248Z,16.40
2023-02-06T05:51:30.500Z,12.90
2023-02-06T05:52:30.760Z,12.50
2023-02-06T05:53:31.058Z,11.40
2023-02-06T05:54:31.332Z,12.10
2023-02-06T05:55:31.646Z,13.60
2023-02-06T05:56:31.945Z,13.50
2023-02-06T05:57:32.265Z,14.00
2023-02-06T05:58:32.436Z,13.20
2023-02-06T05:59:32.816Z,14.20
2023-02-06T06:00:33.186Z,12.90
2023-02-06T06:01:33.418Z,13.80
2023-02-06T06:02:37.594Z,15.50
2023-02-06T06:03:34.140Z,12.50
2023-02-06T06:04:34.297Z,15.90
2023-02-06T06:05:34.754Z,14.20
2023-02-06T06:06:34.867Z,16.30
2023-02-06T06:07:35.453Z,15.60
2023-02-06T06:08:35.459Z,12.30
2023-02-06T06:09:35.653Z,11.90
2023-02-06T06:10:36.042Z,12.40
2023-02-06T06:11:36.278Z,15.70
2023-02-06T06:12:36.507Z,15.50
2023-02-06T06:13:36.816Z,14.60
2023-02-06T06:14:37.080Z,11.60
2023-02-06T06:15:37.761Z,15.40
2023-02-06T06:16:37.666Z,16.60
2023-02-06T06:17:37.902Z,14.50
2023-02-06T06:18:38.180Z,13.40
2023-02-06T06:19:38.532Z,14.20
2023-02-06T06:20:38.820Z,15.30
2023-02-06T06:21:39.351Z,15.20
2023-02-06T06:22:39.326Z,13.70
2023-02-06T06:23:39.698Z,11.80
2023-02-06T06:24:39.985Z,13.50
2023-02-06T06:25:40.194Z,12.90
2023-02-06T06:26:40.541Z,12.90
2023-02-06T06:27:40.999Z,13.30
2023-02-06T06:28:41.180Z,14.80
2023-02-06T06:29:41.489Z,15.50
2023-02-06T06:30:41.857Z,13.80
2023-02-06T06:31:41.959Z,13.90
2023-02-06T06:32:42.226Z,12.30
2023-02-06T06:33:42.529Z,15.00
2023-02-06T06:34:42.813Z,13.10
2023-02-06T06:35:43.367Z,11.60
2023-02-06T06:36:43.377Z,13.60
2023-02-06T06:37:43.743Z,13.30
2023-02-06T06:38:43.950Z,13.50
2023-02-06T06:39:44.413Z,11.80
2023-02-06T06:40:44.652Z,12.10
2023-02-06T06:41:44.840Z,13.30
2023-02-06T06:42:45.283Z,13.90
2023-02-06T06:43:45.511Z,13.10
2023-02-06T06:44:45.715Z,11.90
2023-02-06T06:45:45.965Z,12.90
2023-02-06T06:46:46.356Z,13.80
2023-02-06T06:47:46.433Z,12.90
2023-02-06T06:48:47.205Z,15.90
2023-02-06T06:49:46.935Z,13.60
2023-02-06T06:50:47.155Z,14.00
2023-02-06T06:51:47.599Z,14.50
2023-02-06T06:52:47.777Z,14.30
2023-02-06T06:53:48.159Z,15.20
2023-02-06T06:54:48.415Z,16.20
2023-02-06T06:55:48.750Z,14.20
2023-02-06T06:56:48.936Z,13.90
2023-02-06T06:57:49.203Z,15.40
2023-02-06T06:58:49.428Z,13.60
2023-02-06T06:59:49.791Z,15.00
2023-02-06T07:00:50.168Z,13.60
2023-02-06T07:01:50.393Z,12.80
2023-02-06T07:02:50.683Z,15.90
2023-02-06T07:03:51.006Z,13.90
2023-02-06T07:04:51.232Z,14.10
2023-02-06T07:05:53.217Z,15.90
2023-02-06T07:06:51.706Z,15.30
2023-02-06T07:07:51.952Z,14.50
2023-02-06T07:08:52.666Z,17.20
2023-02-06T07:09:52.582Z,14.90
2023-02-06T07:10:52.748Z,14.60
2023-02-06T07:11:53.187Z,14.60
2023-02-06T07:12:53.502Z,14.90
2023-02-06T07:13:53.699Z,16.30
2023-02-06T07:14:53.950Z,16.20
2023-02-06T07:15:54.255Z,14.60
2023-02-06T07:16:54.489Z,15.60
2023-02-06T07:17:55.038Z,14.00
2023-02-06T07:18:55.091Z,14.70
2023-02-06T07:19:55.564Z,14.10
2023-02-06T07:20:55.767Z,13.00
2023-02-06T07:21:56.005Z,13.40
2023-02-06T07:22:56.254Z,15.50
2023-02-06T07:23:56.514Z,15.60
2023-02-06T07:24:56.809Z,14.00
2023-02-06T07:25:57.062Z,15.60
2023-02-06T07:26:57.298Z,14.20
2023-02-06T07:28:01.491Z,15.60
2023-02-06T07:28:57.897Z,15.20
2023-02-06T07:29:58.162Z,14.20
2023-02-06T07:30:58.395Z,16.10
2023-02-06T07:31:58.722Z,14.00
2023-02-06T07:32:58.933Z,15.10
2023-02-06T07:33:59.249Z,23.20
2023-02-06T07:34:59.505Z,16.10
2023-02-06T07:36:01.665Z,16.50
2023-02-06T07:37:00.010Z,18.90
2023-02-06T07:38:00.384Z,15.40
2023-02-06T07:39:00.637Z,16.60
2023-02-06T07:40:00.896Z,17.40
2023-02-06T07:41:01.184Z,17.00
2023-02-06T07:42:01.437Z,18.50
2023-02-06T07:43:01.778Z,15.60
2023-02-06T07:44:02.002Z,15.20
2023-02-06T07:45:02.269Z,14.50
2023-02-06T07:46:02.651Z,16.60
2023-02-06T07:47:02.903Z,14.30
2023-02-06T07:48:03.195Z,14.60
2023-02-06T07:49:03.436Z,15.20
2023-02-06T07:50:03.790Z,15.00
2023-02-06T07:51:04.058Z,21.00
2023-02-06T07:52:04.397Z,33.50
2023-02-06T07:53:04.633Z,20.30
2023-02-06T07:54:04.916Z,18.20
2023-02-06T07:55:05.189Z,21.20
2023-02-06T07:56:05.459Z,17.20
2023-02-06T07:57:05.733Z,14.10
2023-02-06T07:58:05.980Z,13.50
2023-02-06T07:59:06.200Z,16.00
2023-02-06T08:00:06.578Z,13.80
2023-02-06T08:01:06.861Z,16.70
2023-02-06T08:02:07.170Z,17.70
2023-02-06T08:03:07.359Z,15.90
2023-02-06T08:04:07.706Z,14.80
2023-02-06T08:05:07.891Z,14.70
2023-02-06T08:06:08.168Z,14.80
2023-02-06T08:07:08.452Z,16.50
2023-02-06T08:08:08.691Z,17.70
2023-02-06T08:09:08.960Z,15.70
2023-02-06T08:10:09.175Z,15.60
2023-02-06T08:11:09.458Z,15.70
2023-02-06T08:12:11.785Z,13.90
2023-02-06T08:13:10.025Z,15.40
2023-02-06T08:14:10.268Z,15.50
2023-02-06T08:15:10.532Z,14.40
2023-02-06T08:16:10.836Z,15.50
2023-02-06T08:17:11.073Z,15.50
2023-02-06T08:18:11.325Z,15.70
2023-02-06T08:19:11.625Z,16.90
2023-02-06T08:20:11.838Z,16.10
2023-02-06T08:21:12.080Z,14.40
2023-02-06T08:22:12.352Z,15.80
2023-02-06T08:23:12.672Z,17.60
2023-02-06T08:24:13.380Z,14.20
2023-02-06T08:25:13.176Z,14.60
2023-02-06T08:26:13.571Z,15.30
2023-02-06T08:27:13.829Z,17.20
2023-02-06T08:28:14.112Z,17.70
2023-02-06T08:29:14.384Z,16.30
2023-02-06T08:30:14.612Z,17.00
2023-02-06T08:31:14.935Z,17.40
2023-02-06T08:32:15.155Z,19.30
2023-02-06T08:33:15.373Z,14.50
2023-02-06T08:34:15.817Z,14.20
2023-02-06T08:35:15.981Z,13.30
2023-02-06T08:36:16.368Z,16.20
2023-02-06T08:37:16.676Z,17.80
2023-02-06T08:38:16.881Z,15.00
2023-02-06T08:39:17.147Z,16.10
2023-02-06T08:40:17.337Z,16.40
2023-02-06T08:41:17.775Z,19.60
2023-02-06T08:42:17.961Z,16.80
2023-02-06T08:43:18.197Z,16.60
2023-02-06T08:44:18.457Z,18.30
2023-02-06T08:45:18.693Z,16.30
2023-02-06T08:46:19.039Z,14.60
2023-02-06T08:47:19.265Z,20.10
2023-02-06T08:48:19.500Z,15.80
2023-02-06T08:49:19.827Z,13.90
2023-02-06T08:50:20.055Z,14.80
2023-02-06T08:51:20.280Z,17.00
2023-02-06T08:52:20.685Z,15.00
2023-02-06T08:53:20.874Z,14.90
2023-02-06T08:54:21.139Z,14.90
2023-02-06T08:55:25.252Z,14.70
2023-02-06T08:56:21.744Z,14.40
2023-02-06T08:57:22.095Z,20.10
2023-02-06T08:58:22.361Z,14.70
2023-02-06T08:59:22.594Z,15.00
2023-02-06T09:00:22.856Z,16.10
2023-02-06T09:01:23.140Z,15.40
2023-02-06T09:02:23.502Z,14.70
2023-02-06T09:03:23.715Z,16.90
2023-02-06T09:04:23.965Z,15.60
2023-02-06T09:05:24.237Z,14.10
2023-02-06T09:06:24.495Z,13.40
2023-02-06T09:07:24.766Z,18.60
2023-02-06T09:08:25.065Z,18.90
2023-02-06T09:09:25.284Z,18.70
2023-02-06T09:10:27.655Z,14.00
2023-02-06T09:11:25.947Z,16.10
2023-02-06T09:12:26.229Z,15.40
2023-02-06T09:13:26.474Z,13.80
2023-02-06T09:14:26.741Z,15.80
2023-02-06T09:15:26.985Z,13.80
2023-02-06T09:16:27.367Z,15.60
2023-02-06T09:17:27.636Z,15.00
2023-02-06T09:18:27.940Z,16.10
2023-02-06T09:19:28.373Z,15.70
2023-02-06T09:20:28.458Z,15.80
2023-02-06T09:21:28.707Z,16.80
2023-02-06T09:22:29.151Z,15.50
2023-02-06T09:23:29.274Z,15.50
2023-02-06T09:24:29.573Z,16.10
2023-02-06T09:25:29.827Z,16.30
2023-02-06T09:26:30.075Z,19.50
2023-02-06T09:27:30.340Z,15.50
2023-02-06T09:28:30.595Z,17.50
2023-02-06T09:29:30.896Z,18.50
2023-02-06T09:30:32.085Z,19.00
2023-02-06T09:31:31.473Z,16.00
2023-02-06T09:32:31.903Z,18.80
2023-02-06T09:33:32.238Z,18.30
2023-02-06T09:34:32.272Z,17.20
2023-02-06T09:35:32.528Z,17.60
2023-02-06T09:36:32.816Z,19.20
2023-02-06T09:37:33.077Z,17.30
2023-02-06T09:38:33.353Z,20.10
2023-02-06T09:39:33.569Z,17.30
2023-02-06T09:40:33.807Z,14.80
2023-02-06T09:41:34.220Z,14.00
2023-02-06T09:42:34.391Z,16.20
2023-02-06T09:43:35.587Z,15.00
2023-02-06T09:44:34.877Z,16.90
2023-02-06T09:45:35.548Z,14.30
2023-02-06T09:46:35.440Z,15.40
2023-02-06T09:47:35.652Z,18.50
2023-02-06T09:48:35.938Z,16.80
2023-02-06T09:49:36.183Z,16.70
2023-02-06T09:50:36.476Z,15.20
2023-02-06T09:51:36.743Z,14.60
2023-02-06T09:52:37.047Z,15.70
2023-02-06T09:53:37.291Z,15.70
2023-02-06T09:54:37.537Z,15.80
2023-02-06T09:55:38.001Z,18.50
2023-02-06T09:56:38.136Z,15.80
2023-02-06T09:57:38.370Z,15.00
2023-02-06T09:58:38.598Z,15.70
2023-02-06T09:59:38.913Z,14.30
2023-02-06T10:00:39.124Z,15.30
2023-02-06T10:01:39.486Z,15.50
2023-02-06T10:02:39.698Z,14.20
2023-02-06T10:03:39.965Z,15.90
2023-02-06T10:04:40.236Z,14.20
2023-02-06T10:05:40.560Z,15.30
2023-02-06T10:06:40.776Z,17.40
2023-02-06T10:07:41.062Z,15.30
2023-02-06T10:08:41.363Z,22.20
2023-02-06T10:09:41.619Z,16.70
2023-02-06T10:10:41.898Z,18.20
2023-02-06T10:11:42.141Z,14.10
2023-02-06T10:12:42.384Z,14.90
2023-02-06T10:13:42.738Z,15.50
2023-02-06T10:14:42.953Z,17.10
2023-02-06T10:15:43.185Z,17.80
2023-02-06T10:16:43.470Z,14.80
2023-02-06T10:17:43.727Z,15.40
2023-02-06T10:18:44.026Z,16.80
2023-02-06T10:19:44.242Z,14.40
2023-02-06T10:20:44.525Z,17.80
2023-02-06T10:21:44.807Z,16.10
2023-02-06T10:22:45.085Z,18.30
2023-02-06T10:23:47.477Z,16.70
2023-02-06T10:24:45.680Z,14.80
2023-02-06T10:25:45.923Z,16.20
2023-02-06T10:26:46.198Z,17.10
2023-02-06T10:27:46.508Z,14.80
2023-02-06T10:28:46.783Z,14.60
2023-02-06T10:29:47.016Z,18.40
2023-02-06T10:30:47.299Z,16.70
2023-02-06T10:31:47.620Z,16.50
2023-02-06T10:32:47.827Z,15.20
2023-02-06T10:33:48.080Z,15.80
2023-02-06T10:34:48.369Z,16.20
2023-02-06T10:35:48.642Z,16.80
2023-02-06T10:36:48.931Z,14.90
2023-02-06T10:37:49.183Z,17.60
2023-02-06T10:38:49.933Z,16.10
2023-02-06T10:39:49.730Z,16.40
2023-02-06T10:40:49.995Z,17.10
2023-02-06T10:41:50.276Z,20.20
2023-02-06T10:42:50.576Z,18.90
2023-02-06T10:43:50.805Z,15.40
2023-02-06T10:44:51.624Z,15.80
2023-02-06T10:45:51.349Z,14.50
2023-02-06T10:46:51.712Z,12.50
2023-02-06T10:47:51.982Z,13.70
2023-02-06T10:48:53.583Z,13.70
2023-02-06T10:49:52.606Z,15.90
2023-02-06T10:50:52.877Z,16.00
2023-02-06T10:51:53.118Z,14.60
2023-02-06T10:52:53.446Z,14.60
2023-02-06T10:53:53.658Z,15.90
2023-02-06T10:54:53.936Z,16.70
2023-02-06T10:55:54.629Z,14.90
2023-02-06T10:56:54.516Z,14.90
2023-02-06T10:57:54.820Z,13.90
2023-02-06T10:58:55.069Z,15.70
2023-02-06T10:59:55.321Z,13.30
2023-02-06T11:00:55.579Z,15.50
2023-02-06T11:01:55.952Z,12.50
2023-02-06T11:03:06.687Z,15.80
2023-02-06T11:03:57.305Z,15.30
2023-02-06T11:04:56.539Z,16.80
2023-02-06T11:05:56.829Z,15.70
2023-02-06T11:06:57.112Z,14.70
2023-02-06T11:07:57.406Z,14.70
2023-02-06T11:08:57.667Z,19.60
2023-02-06T11:09:57.914Z,13.90
2023-02-06T11:10:58.591Z,14.60
2023-02-06T11:11:58.518Z,13.50
2023-02-06T11:12:58.828Z,12.70
2023-02-06T11:13:59.027Z,16.20
2023-02-06T11:14:59.418Z,16.10
2023-02-06T11:15:59.756Z,18.10
2023-02-06T11:16:59.958Z,15.50
2023-02-06T11:18:00.287Z,12.70
2023-02-06T11:19:00.475Z,12.10
2023-02-06T11:20:00.763Z,13.90
2023-02-06T11:21:01.043Z,18.30
2023-02-06T11:22:01.337Z,13.80
2023-02-06T11:23:02.487Z,13.10
2023-02-06T11:24:01.899Z,17.60
2023-02-06T11:25:02.206Z,17.00
2023-02-06T11:26:02.487Z,18.50
2023-02-06T11:27:02.775Z,12.50
2023-02-06T11:28:03.053Z,11.30
2023-02-06T11:29:03.245Z,12.80
2023-02-06T11:30:03.562Z,16.40
2023-02-06T11:31:03.792Z,14.30
2023-02-06T11:32:04.097Z,11.10
2023-02-06T11:33:05.071Z,14.40
2023-02-06T11:34:04.641Z,14.30
2023-02-06T11:35:04.941Z,12.30
2023-02-06T11:36:05.147Z,11.90
2023-02-06T11:37:05.413Z,18.30
2023-02-06T11:38:05.731Z,14.90
2023-02-06T11:39:05.984Z,15.80
2023-02-06T11:40:06.234Z,11.10
2023-02-06T11:41:06.475Z,12.50
2023-02-06T11:42:06.750Z,12.00
2023-02-06T11:43:07.025Z,11.90
2023-02-06T11:44:07.275Z,14.90
2023-02-06T11:45:07.561Z,13.00
2023-02-06T11:46:07.802Z,15.00
2023-02-06T11:47:08.085Z,13.00
2023-02-06T11:48:08.291Z,11.40
2023-02-06T11:49:08.602Z,10.40
2023-02-06T11:50:08.840Z,15.30
2023-02-06T11:51:09.135Z,13.00
2023-02-06T11:52:09.404Z,14.10
2023-02-06T11:53:09.668Z,13.00
2023-02-06T11:54:09.964Z,12.80
2023-02-06T11:55:10.254Z,15.40
2023-02-06T11:56:10.561Z,12.40
2023-02-06T11:57:10.767Z,11.50
2023-02-06T11:58:11.026Z,14.10
2023-02-06T11:59:11.439Z,13.30
2023-02-06T12:00:11.640Z,10.30
2023-02-06T12:01:11.870Z,12.90
2023-02-06T12:02:12.201Z,10.70
2023-02-06T12:03:12.469Z,13.20
2023-02-06T12:04:12.729Z,11.40
2023-02-06T12:05:12.983Z,11.80
2023-02-06T12:06:13.244Z,10.80
2023-02-06T12:07:13.518Z,11.20
2023-02-06T12:08:13.810Z,13.80
2023-02-06T12:09:14.049Z,11.20
2023-02-06T12:10:14.293Z,12.50
2023-02-06T12:11:14.574Z,16.10
2023-02-06T12:12:14.852Z,9.10
2023-02-06T12:13:15.090Z,10.40
2023-02-06T12:14:15.393Z,10.70
2023-02-06T12:15:39.972Z,12.30
2023-02-06T12:16:16.842Z,12.30
2023-02-06T12:17:16.136Z,9.90
2023-02-06T12:18:16.355Z,12.50
2023-02-06T12:19:16.641Z,13.00
2023-02-06T12:20:16.886Z,11.30
2023-02-06T12:21:17.221Z,9.50
2023-02-06T12:22:17.469Z,14.10
2023-02-06T12:23:17.719Z,10.10
2023-02-06T12:24:17.962Z,12.00
2023-02-06T12:25:18.231Z,10.40
2023-02-06T12:26:18.496Z,16.30
2023-02-06T12:27:18.728Z,10.70
2023-02-06T12:28:19.001Z,16.30
2023-02-06T12:29:19.259Z,9.00
2023-02-06T12:30:19.502Z,16.10
2023-02-06T12:31:20.012Z,12.10
2023-02-06T12:32:20.036Z,16.10
2023-02-06T12:33:20.495Z,15.70
2023-02-06T12:34:20.558Z,12.50
2023-02-06T12:35:20.816Z,11.80
2023-02-06T12:36:21.061Z,15.20
2023-02-06T12:37:21.314Z,15.00
2023-02-06T12:38:21.591Z,20.80
2023-02-06T12:39:21.840Z,14.80
2023-02-06T12:40:22.124Z,13.70
2023-02-06T12:41:22.365Z,12.10
2023-02-06T12:42:22.633Z,14.40
2023-02-06T12:43:22.906Z,15.50
2023-02-06T12:44:23.170Z,13.30
2023-02-06T12:45:23.489Z,9.40
2023-02-06T12:46:23.739Z,12.50
2023-02-06T12:47:23.979Z,11.30
2023-02-06T12:48:24.286Z,13.40
2023-02-06T12:49:24.589Z,11.10
2023-02-06T12:50:24.861Z,13.80
2023-02-06T12:51:25.152Z,16.00
2023-02-06T12:52:25.389Z,12.20
2023-02-06T12:53:25.685Z,11.90
2023-02-06T12:54:25.925Z,15.10
2023-02-06T12:55:26.235Z,13.90
2023-02-06T12:56:26.953Z,13.80